sensor_id;sensor_type;location;lat;lon;timestamp;pressure;altitude;pressure_sealevel;temperature;humidity
76864;BME280;65834;52.364;9.754;2023-08-06T00:00:45;100166.44;;;15.35;97.07
76864;BME280;65834;52.364;9.754;2023-08-06T00:03:15;100165.59;;;15.34;97.78
76864;BME280;65834;52.364;9.754;2023-08-06T00:05:45;100170.06;;;15.29;97.76
76864;BME280;65834;52.364;9.754;2023-08-06T00:08:17;100172.19;;;15.27;97.66
76864;BME280;65834;52.364;9.754;2023-08-06T00:10:49;100160.28;;;15.39;97.43
76864;BME280;65834;52.364;9.754;2023-08-06T00:13:19;100158.72;;;15.32;95.80
76864;BME280;65834;52.364;9.754;2023-08-06T00:15:48;100150.06;;;15.35;96.42
76864;BME280;65834;52.364;9.754;2023-08-06T00:18:18;100145.50;;;15.47;96.45
76864;BME280;65834;52.364;9.754;2023-08-06T00:20:47;100142.13;;;15.33;96.28
76864;BME280;65834;52.364;9.754;2023-08-06T00:23:20;100136.53;;;15.28;97.18
76864;BME280;65834;52.364;9.754;2023-08-06T00:25:49;100140.09;;;15.29;97.20
76864;BME280;65834;52.364;9.754;2023-08-06T00:28:19;100137.06;;;15.18;97.25
76864;BME280;65834;52.364;9.754;2023-08-06T00:30:52;100130.63;;;15.31;96.86
76864;BME280;65834;52.364;9.754;2023-08-06T00:33:22;100131.75;;;15.24;96.86
76864;BME280;65834;52.364;9.754;2023-08-06T00:35:58;100130.66;;;15.13;96.54
76864;BME280;65834;52.364;9.754;2023-08-06T00:38:33;100121.09;;;15.22;97.37
76864;BME280;65834;52.364;9.754;2023-08-06T00:41:03;100121.69;;;15.24;96.52
76864;BME280;65834;52.364;9.754;2023-08-06T00:43:32;100118.13;;;15.24;96.97
76864;BME280;65834;52.364;9.754;2023-08-06T00:46:02;100116.03;;;15.26;97.82
76864;BME280;65834;52.364;9.754;2023-08-06T00:48:32;100111.50;;;15.19;97.71
76864;BME280;65834;52.364;9.754;2023-08-06T00:51:02;100099.97;;;15.17;97.96
76864;BME280;65834;52.364;9.754;2023-08-06T00:53:34;100100.44;;;15.14;96.83
76864;BME280;65834;52.364;9.754;2023-08-06T00:56:04;100087.78;;;15.20;97.32
76864;BME280;65834;52.364;9.754;2023-08-06T00:58:35;100080.44;;;15.20;97.68
76864;BME280;65834;52.364;9.754;2023-08-06T01:01:05;100089.25;;;15.23;97.19
76864;BME280;65834;52.364;9.754;2023-08-06T01:03:34;100074.44;;;15.30;97.44
76864;BME280;65834;52.364;9.754;2023-08-06T01:06:04;100071.13;;;15.28;97.46
76864;BME280;65834;52.364;9.754;2023-08-06T01:08:46;100076.88;;;15.20;96.75
76864;BME280;65834;52.364;9.754;2023-08-06T01:11:24;100067.44;;;15.23;96.30
76864;BME280;65834;52.364;9.754;2023-08-06T01:14:01;100060.25;;;15.28;95.78
76864;BME280;65834;52.364;9.754;2023-08-06T01:16:33;100053.94;;;15.28;96.43
76864;BME280;65834;52.364;9.754;2023-08-06T01:19:03;100055.63;;;15.29;97.43
76864;BME280;65834;52.364;9.754;2023-08-06T01:21:35;100055.84;;;15.27;96.57
76864;BME280;65834;52.364;9.754;2023-08-06T01:24:05;100057.03;;;15.31;96.28
76864;BME280;65834;52.364;9.754;2023-08-06T01:26:41;100059.16;;;15.29;96.99
76864;BME280;65834;52.364;9.754;2023-08-06T01:29:15;100062.00;;;15.23;97.22
76864;BME280;65834;52.364;9.754;2023-08-06T01:31:49;100061.38;;;15.20;97.59
76864;BME280;65834;52.364;9.754;2023-08-06T01:34:20;100054.78;;;15.28;96.89
76864;BME280;65834;52.364;9.754;2023-08-06T01:36:53;100051.81;;;15.30;96.72
76864;BME280;65834;52.364;9.754;2023-08-06T01:39:23;100048.97;;;15.25;97.02
76864;BME280;65834;52.364;9.754;2023-08-06T01:41:52;100052.63;;;15.18;97.59
76864;BME280;65834;52.364;9.754;2023-08-06T01:44:22;100049.66;;;15.20;98.17
76864;BME280;65834;52.364;9.754;2023-08-06T01:46:51;100048.69;;;15.14;97.94
76864;BME280;65834;52.364;9.754;2023-08-06T01:49:21;100044.91;;;15.15;98.29
76864;BME280;65834;52.364;9.754;2023-08-06T01:51:54;100031.28;;;15.15;98.67
76864;BME280;65834;52.364;9.754;2023-08-06T01:54:24;100032.50;;;15.19;99.32
76864;BME280;65834;52.364;9.754;2023-08-06T01:56:54;100023.94;;;15.16;98.81
76864;BME280;65834;52.364;9.754;2023-08-06T01:59:25;100023.13;;;15.15;98.52
76864;BME280;65834;52.364;9.754;2023-08-06T02:01:54;100030.44;;;15.15;98.33
76864;BME280;65834;52.364;9.754;2023-08-06T02:04:24;100020.00;;;15.12;98.08
76864;BME280;65834;52.364;9.754;2023-08-06T02:06:57;100018.59;;;15.09;98.52
76864;BME280;65834;52.364;9.754;2023-08-06T02:09:26;100014.78;;;15.10;98.21
76864;BME280;65834;52.364;9.754;2023-08-06T02:11:56;100023.78;;;15.11;97.86
76864;BME280;65834;52.364;9.754;2023-08-06T02:17:11;100029.47;;;15.09;98.02
76864;BME280;65834;52.364;9.754;2023-08-06T02:19:41;100027.34;;;15.11;97.82
76864;BME280;65834;52.364;9.754;2023-08-06T02:22:13;100026.75;;;15.09;97.38
76864;BME280;65834;52.364;9.754;2023-08-06T02:24:43;100030.78;;;15.07;96.64
76864;BME280;65834;52.364;9.754;2023-08-06T02:27:12;100031.94;;;14.99;97.61
76864;BME280;65834;52.364;9.754;2023-08-06T02:29:42;100036.22;;;15.07;97.49
76864;BME280;65834;52.364;9.754;2023-08-06T02:32:12;100031.72;;;15.01;97.90
76864;BME280;65834;52.364;9.754;2023-08-06T02:34:41;100032.25;;;14.91;97.99
76864;BME280;65834;52.364;9.754;2023-08-06T02:37:14;100029.66;;;14.96;97.94
76864;BME280;65834;52.364;9.754;2023-08-06T02:39:44;100024.81;;;14.98;97.32
76864;BME280;65834;52.364;9.754;2023-08-06T02:42:14;100021.13;;;14.93;97.97
76864;BME280;65834;52.364;9.754;2023-08-06T02:44:43;100013.19;;;14.91;97.66
76864;BME280;65834;52.364;9.754;2023-08-06T02:47:13;100013.41;;;14.90;97.99
76864;BME280;65834;52.364;9.754;2023-08-06T02:49:43;100022.19;;;14.92;97.78
76864;BME280;65834;52.364;9.754;2023-08-06T02:52:15;100011.53;;;14.90;98.14
76864;BME280;65834;52.364;9.754;2023-08-06T02:54:45;99999.56;;;14.91;97.84
76864;BME280;65834;52.364;9.754;2023-08-06T02:57:15;100000.03;;;14.88;97.58
76864;BME280;65834;52.364;9.754;2023-08-06T02:59:46;99997.69;;;14.92;97.60
76864;BME280;65834;52.364;9.754;2023-08-06T03:02:19;99982.88;;;14.88;98.11
76864;BME280;65834;52.364;9.754;2023-08-06T03:05:00;99973.03;;;14.87;98.40
76864;BME280;65834;52.364;9.754;2023-08-06T03:07:36;99963.56;;;14.89;98.91
76864;BME280;65834;52.364;9.754;2023-08-06T03:10:15;99965.94;;;14.86;99.18
76864;BME280;65834;52.364;9.754;2023-08-06T03:12:46;99968.66;;;14.86;99.05
76864;BME280;65834;52.364;9.754;2023-08-06T03:15:17;99964.03;;;14.86;98.94
76864;BME280;65834;52.364;9.754;2023-08-06T03:17:47;99961.53;;;14.85;99.16
76864;BME280;65834;52.364;9.754;2023-08-06T03:20:20;99951.34;;;14.80;99.02
76864;BME280;65834;52.364;9.754;2023-08-06T03:22:52;99955.03;;;14.86;98.84
76864;BME280;65834;52.364;9.754;2023-08-06T03:25:21;99942.47;;;14.85;98.88
76864;BME280;65834;52.364;9.754;2023-08-06T03:27:51;99944.59;;;14.83;98.21
76864;BME280;65834;52.364;9.754;2023-08-06T03:30:21;99940.06;;;14.77;98.18
76864;BME280;65834;52.364;9.754;2023-08-06T03:32:53;99950.75;;;14.78;99.09
76864;BME280;65834;52.364;9.754;2023-08-06T03:35:22;99947.56;;;14.81;98.94
76864;BME280;65834;52.364;9.754;2023-08-06T03:37:54;99942.09;;;14.81;98.93
76864;BME280;65834;52.364;9.754;2023-08-06T03:40:24;99935.81;;;14.81;98.59
76864;BME280;65834;52.364;9.754;2023-08-06T03:42:56;99942.56;;;14.78;98.75
76864;BME280;65834;52.364;9.754;2023-08-06T03:45:25;99936.28;;;14.78;98.99
76864;BME280;65834;52.364;9.754;2023-08-06T03:47:55;99944.47;;;14.78;98.99
76864;BME280;65834;52.364;9.754;2023-08-06T03:50:25;99941.38;;;14.74;98.80
76864;BME280;65834;52.364;9.754;2023-08-06T03:52:57;99944.34;;;14.73;99.21
76864;BME280;65834;52.364;9.754;2023-08-06T03:55:27;99938.88;;;14.73;99.02
76864;BME280;65834;52.364;9.754;2023-08-06T03:57:57;99932.81;;;14.71;99.12
76864;BME280;65834;52.364;9.754;2023-08-06T04:00:27;99937.34;;;14.77;98.83
76864;BME280;65834;52.364;9.754;2023-08-06T04:02:56;99926.47;;;14.77;98.75
76864;BME280;65834;52.364;9.754;2023-08-06T04:05:30;99918.75;;;14.74;99.45
76864;BME280;65834;52.364;9.754;2023-08-06T04:08:02;99917.69;;;14.75;99.38
76864;BME280;65834;52.364;9.754;2023-08-06T04:10:32;99917.69;;;14.75;99.35
76864;BME280;65834;52.364;9.754;2023-08-06T04:13:02;99921.25;;;14.75;99.63
76864;BME280;65834;52.364;9.754;2023-08-06T04:15:33;99926.13;;;14.73;98.76
76864;BME280;65834;52.364;9.754;2023-08-06T04:18:03;99923.22;;;14.68;98.97
76864;BME280;65834;52.364;9.754;2023-08-06T04:20:32;99914.03;;;14.69;99.32
76864;BME280;65834;52.364;9.754;2023-08-06T04:23:08;99921.13;;;14.70;98.73
76864;BME280;65834;52.364;9.754;2023-08-06T04:25:38;99920.50;;;14.68;98.97
76864;BME280;65834;52.364;9.754;2023-08-06T04:28:08;99931.78;;;14.72;98.33
76864;BME280;65834;52.364;9.754;2023-08-06T04:30:38;99926.78;;;14.69;97.50
76864;BME280;65834;52.364;9.754;2023-08-06T04:33:08;99927.03;;;14.67;97.32
76864;BME280;65834;52.364;9.754;2023-08-06T04:35:38;99926.41;;;14.65;97.68
76864;BME280;65834;52.364;9.754;2023-08-06T04:38:10;99925.72;;;14.58;98.42
76864;BME280;65834;52.364;9.754;2023-08-06T04:40:40;99927.97;;;14.61;98.17
76864;BME280;65834;52.364;9.754;2023-08-06T04:43:10;99926.50;;;14.58;98.29
76864;BME280;65834;52.364;9.754;2023-08-06T04:45:45;99926.88;;;14.62;97.94
76864;BME280;65834;52.364;9.754;2023-08-06T04:48:15;99921.44;;;14.62;97.59
76864;BME280;65834;52.364;9.754;2023-08-06T04:50:45;99923.31;;;14.61;97.37
76864;BME280;65834;52.364;9.754;2023-08-06T04:53:18;99925.84;;;14.63;97.93
76864;BME280;65834;52.364;9.754;2023-08-06T04:55:47;99930.22;;;14.64;98.27
76864;BME280;65834;52.364;9.754;2023-08-06T04:58:17;99926.41;;;14.65;98.43
76864;BME280;65834;52.364;9.754;2023-08-06T05:00:47;99936.47;;;14.64;98.54
76864;BME280;65834;52.364;9.754;2023-08-06T05:03:16;99933.53;;;14.66;98.66
76864;BME280;65834;52.364;9.754;2023-08-06T05:05:46;99932.56;;;14.60;98.64
76864;BME280;65834;52.364;9.754;2023-08-06T05:08:19;99931.50;;;14.61;99.03
76864;BME280;65834;52.364;9.754;2023-08-06T05:10:48;99919.34;;;14.64;98.73
76864;BME280;65834;52.364;9.754;2023-08-06T05:13:18;99925.38;;;14.66;98.89
76864;BME280;65834;52.364;9.754;2023-08-06T05:15:49;99922.41;;;14.68;99.04
76864;BME280;65834;52.364;9.754;2023-08-06T05:18:18;99926.78;;;14.69;98.84
76864;BME280;65834;52.364;9.754;2023-08-06T05:20:49;99931.41;;;14.68;98.86
76864;BME280;65834;52.364;9.754;2023-08-06T05:23:21;99932.03;;;14.70;98.77
76864;BME280;65834;52.364;9.754;2023-08-06T05:25:51;99935.34;;;14.72;99.20
76864;BME280;65834;52.364;9.754;2023-08-06T05:28:20;99937.34;;;14.77;99.29
76864;BME280;65834;52.364;9.754;2023-08-06T05:30:50;99934.41;;;14.78;99.33
76864;BME280;65834;52.364;9.754;2023-08-06T05:33:19;99935.69;;;14.76;99.01
76864;BME280;65834;52.364;9.754;2023-08-06T05:35:49;99930.84;;;14.78;98.34
76864;BME280;65834;52.364;9.754;2023-08-06T05:38:21;99927.44;;;14.82;99.00
76864;BME280;65834;52.364;9.754;2023-08-06T05:40:51;99926.97;;;14.85;98.83
76864;BME280;65834;52.364;9.754;2023-08-06T05:43:22;99929.25;;;14.88;98.80
76864;BME280;65834;52.364;9.754;2023-08-06T05:45:51;99923.91;;;14.93;98.54
76864;BME280;65834;52.364;9.754;2023-08-06T05:48:21;99935.41;;;14.95;99.11
76864;BME280;65834;52.364;9.754;2023-08-06T05:50:51;99926.75;;;14.98;98.49
76864;BME280;65834;52.364;9.754;2023-08-06T05:53:24;99934.16;;;15.09;98.45
76864;BME280;65834;52.364;9.754;2023-08-06T05:55:53;99932.34;;;15.03;97.96
76864;BME280;65834;52.364;9.754;2023-08-06T05:58:23;99936.63;;;15.11;98.60
76864;BME280;65834;52.364;9.754;2023-08-06T06:00:55;99937.44;;;15.11;98.41
76864;BME280;65834;52.364;9.754;2023-08-06T06:03:25;99931.16;;;15.11;98.37
76864;BME280;65834;52.364;9.754;2023-08-06T06:05:55;99932.00;;;15.11;97.43
76864;BME280;65834;52.364;9.754;2023-08-06T06:08:27;99929.19;;;15.18;98.12
76864;BME280;65834;52.364;9.754;2023-08-06T06:10:56;99928.50;;;15.23;98.68
76864;BME280;65834;52.364;9.754;2023-08-06T06:13:26;99927.66;;;15.22;97.59
76864;BME280;65834;52.364;9.754;2023-08-06T06:15:55;99921.13;;;15.23;96.00
76864;BME280;65834;52.364;9.754;2023-08-06T06:18:25;99918.53;;;15.28;96.21
76864;BME280;65834;52.364;9.754;2023-08-06T06:20:55;99924.34;;;15.32;97.39
76864;BME280;65834;52.364;9.754;2023-08-06T06:23:27;99916.50;;;15.35;97.65
76864;BME280;65834;52.364;9.754;2023-08-06T06:25:56;99915.25;;;15.38;97.00
76864;BME280;65834;52.364;9.754;2023-08-06T06:28:29;99911.91;;;15.36;96.57
76864;BME280;65834;52.364;9.754;2023-08-06T06:31:00;99912.84;;;15.41;97.34
76864;BME280;65834;52.364;9.754;2023-08-06T06:33:30;99917.25;;;15.42;97.44
76864;BME280;65834;52.364;9.754;2023-08-06T06:36:00;99916.75;;;15.45;96.00
76864;BME280;65834;52.364;9.754;2023-08-06T06:38:32;99915.38;;;15.54;96.55
76864;BME280;65834;52.364;9.754;2023-08-06T06:41:02;99917.88;;;15.56;96.70
76864;BME280;65834;52.364;9.754;2023-08-06T06:43:32;99917.63;;;15.57;97.05
76864;BME280;65834;52.364;9.754;2023-08-06T06:46:01;99910.38;;;15.63;95.97
76864;BME280;65834;52.364;9.754;2023-08-06T06:48:32;99910.53;;;15.68;95.13
76864;BME280;65834;52.364;9.754;2023-08-06T06:51:02;99909.44;;;15.69;95.22
76864;BME280;65834;52.364;9.754;2023-08-06T06:53:43;99913.34;;;15.73;94.79
76864;BME280;65834;52.364;9.754;2023-08-06T06:56:12;99914.28;;;15.79;94.95
76864;BME280;65834;52.364;9.754;2023-08-06T06:58:42;99902.69;;;15.83;95.48
76864;BME280;65834;52.364;9.754;2023-08-06T07:01:11;99904.47;;;15.89;94.63
76864;BME280;65834;52.364;9.754;2023-08-06T07:03:41;99902.09;;;15.93;94.37
76864;BME280;65834;52.364;9.754;2023-08-06T07:06:11;99909.16;;;15.94;94.21
76864;BME280;65834;52.364;9.754;2023-08-06T07:08:44;99898.03;;;15.95;93.73
76864;BME280;65834;52.364;9.754;2023-08-06T07:11:14;99888.31;;;15.99;93.66
76864;BME280;65834;52.364;9.754;2023-08-06T07:13:44;99892.81;;;16.05;92.42
76864;BME280;65834;52.364;9.754;2023-08-06T07:16:13;99898.75;;;16.02;92.86
76864;BME280;65834;52.364;9.754;2023-08-06T07:18:43;99899.78;;;16.13;92.73
76864;BME280;65834;52.364;9.754;2023-08-06T07:21:12;99908.88;;;16.18;92.67
76864;BME280;65834;52.364;9.754;2023-08-06T07:23:53;99907.00;;;16.19;92.73
76864;BME280;65834;52.364;9.754;2023-08-06T07:26:22;99900.00;;;16.23;92.52
76864;BME280;65834;52.364;9.754;2023-08-06T07:28:52;99898.41;;;16.39;89.98
76864;BME280;65834;52.364;9.754;2023-08-06T07:31:21;99889.88;;;16.35;91.97
76864;BME280;65834;52.364;9.754;2023-08-06T07:33:52;99881.09;;;16.33;92.37
76864;BME280;65834;52.364;9.754;2023-08-06T07:36:21;99883.34;;;16.36;92.05
76864;BME280;65834;52.364;9.754;2023-08-06T07:38:54;99888.53;;;16.38;91.07
76864;BME280;65834;52.364;9.754;2023-08-06T07:41:24;99884.25;;;16.42;92.51
76864;BME280;65834;52.364;9.754;2023-08-06T07:43:54;99890.56;;;16.42;92.23
76864;BME280;65834;52.364;9.754;2023-08-06T07:46:23;99890.88;;;16.46;91.85
76864;BME280;65834;52.364;9.754;2023-08-06T07:48:53;99891.56;;;16.53;91.04
76864;BME280;65834;52.364;9.754;2023-08-06T07:51:22;99897.50;;;16.50;91.04
76864;BME280;65834;52.364;9.754;2023-08-06T07:53:55;99884.47;;;16.52;91.35
76864;BME280;65834;52.364;9.754;2023-08-06T07:56:24;99896.81;;;16.54;91.08
76864;BME280;65834;52.364;9.754;2023-08-06T07:58:54;99895.72;;;16.55;91.84
76864;BME280;65834;52.364;9.754;2023-08-06T08:01:23;99898.22;;;16.57;90.52
76864;BME280;65834;52.364;9.754;2023-08-06T08:03:53;99904.03;;;16.60;90.91
76864;BME280;65834;52.364;9.754;2023-08-06T08:06:22;99896.91;;;16.59;91.27
76864;BME280;65834;52.364;9.754;2023-08-06T08:08:55;99895.84;;;16.60;89.67
76864;BME280;65834;52.364;9.754;2023-08-06T08:11:25;99892.38;;;16.65;91.04
76864;BME280;65834;52.364;9.754;2023-08-06T08:13:55;99889.41;;;16.66;91.50
76864;BME280;65834;52.364;9.754;2023-08-06T08:16:24;99885.84;;;16.66;90.53
76864;BME280;65834;52.364;9.754;2023-08-06T08:18:54;99886.06;;;16.64;89.87
76864;BME280;65834;52.364;9.754;2023-08-06T08:21:24;99873.25;;;16.65;90.00
76864;BME280;65834;52.364;9.754;2023-08-06T08:23:56;99883.78;;;16.73;90.15
76864;BME280;65834;52.364;9.754;2023-08-06T08:26:26;99886.53;;;16.73;90.00
76864;BME280;65834;52.364;9.754;2023-08-06T08:28:56;99885.44;;;16.74;90.15
76864;BME280;65834;52.364;9.754;2023-08-06T08:31:26;99886.03;;;16.76;90.11
76864;BME280;65834;52.364;9.754;2023-08-06T08:33:56;99886.03;;;16.76;89.42
76864;BME280;65834;52.364;9.754;2023-08-06T08:36:27;99886.03;;;16.76;89.66
76864;BME280;65834;52.364;9.754;2023-08-06T08:38:59;99880.91;;;16.79;89.19
76864;BME280;65834;52.364;9.754;2023-08-06T08:41:29;99875.94;;;16.93;87.64
76864;BME280;65834;52.364;9.754;2023-08-06T08:43:59;99873.97;;;16.89;87.94
76864;BME280;65834;52.364;9.754;2023-08-06T08:46:30;99872.03;;;16.89;88.56
76864;BME280;65834;52.364;9.754;2023-08-06T08:49:02;99879.44;;;16.89;88.31
76864;BME280;65834;52.364;9.754;2023-08-06T08:51:33;99875.44;;;16.96;88.06
76864;BME280;65834;52.364;9.754;2023-08-06T08:54:07;99880.09;;;16.96;87.73
76864;BME280;65834;52.364;9.754;2023-08-06T08:56:37;99876.28;;;16.97;88.25
76864;BME280;65834;52.364;9.754;2023-08-06T08:59:06;99874.13;;;16.99;87.99
76864;BME280;65834;52.364;9.754;2023-08-06T09:01:37;99872.56;;;17.03;87.44
76864;BME280;65834;52.364;9.754;2023-08-06T09:04:09;99876.19;;;17.08;87.19
76864;BME280;65834;52.364;9.754;2023-08-06T09:06:41;99865.38;;;17.13;87.39
76864;BME280;65834;52.364;9.754;2023-08-06T09:09:17;99868.34;;;17.12;87.14
76864;BME280;65834;52.364;9.754;2023-08-06T09:11:51;99869.75;;;17.14;87.95
76864;BME280;65834;52.364;9.754;2023-08-06T09:14:22;99869.50;;;17.16;86.67
76864;BME280;65834;52.364;9.754;2023-08-06T09:16:52;99867.34;;;17.18;87.55
76864;BME280;65834;52.364;9.754;2023-08-06T09:19:21;99866.28;;;17.19;87.19
76864;BME280;65834;52.364;9.754;2023-08-06T09:21:51;99863.88;;;17.22;87.23
76864;BME280;65834;52.364;9.754;2023-08-06T09:24:24;99861.16;;;17.22;86.27
76864;BME280;65834;52.364;9.754;2023-08-06T09:26:54;99863.94;;;17.27;87.72
76864;BME280;65834;52.364;9.754;2023-08-06T09:29:25;99862.03;;;17.28;86.72
76864;BME280;65834;52.364;9.754;2023-08-06T09:32:00;99856.91;;;17.31;86.94
76864;BME280;65834;52.364;9.754;2023-08-06T09:34:29;99863.19;;;17.32;87.32
76864;BME280;65834;52.364;9.754;2023-08-06T09:36:59;99856.66;;;17.33;86.25
76864;BME280;65834;52.364;9.754;2023-08-06T09:39:31;99864.69;;;17.40;84.81
76864;BME280;65834;52.364;9.754;2023-08-06T09:42:01;99859.44;;;17.38;85.87
76864;BME280;65834;52.364;9.754;2023-08-06T09:44:32;99859.22;;;17.40;86.75
76864;BME280;65834;52.364;9.754;2023-08-06T09:47:03;99859.78;;;17.42;85.35
76864;BME280;65834;52.364;9.754;2023-08-06T09:49:42;99864.50;;;17.46;85.53
76864;BME280;65834;52.364;9.754;2023-08-06T09:52:13;99853.91;;;17.50;84.22
76864;BME280;65834;52.364;9.754;2023-08-06T09:54:47;99856.63;;;17.50;84.83
76864;BME280;65834;52.364;9.754;2023-08-06T09:57:17;99855.53;;;17.51;84.43
76864;BME280;65834;52.364;9.754;2023-08-06T09:59:47;99846.25;;;17.52;84.54
76864;BME280;65834;52.364;9.754;2023-08-06T10:02:17;99845.28;;;17.58;84.39
76864;BME280;65834;52.364;9.754;2023-08-06T10:04:48;99841.22;;;18.25;81.80
76864;BME280;65834;52.364;9.754;2023-08-06T10:07:21;99844.91;;;18.89;74.07
76864;BME280;65834;52.364;9.754;2023-08-06T10:09:53;99841.25;;;19.11;71.34
76864;BME280;65834;52.364;9.754;2023-08-06T10:12:24;99845.41;;;19.13;72.44
76864;BME280;65834;52.364;9.754;2023-08-06T10:14:56;99841.34;;;18.89;72.76
76864;BME280;65834;52.364;9.754;2023-08-06T10:17:26;99841.44;;;19.36;71.60
76864;BME280;65834;52.364;9.754;2023-08-06T10:20:16;99841.56;;;19.46;69.37
76864;BME280;65834;52.364;9.754;2023-08-06T10:22:45;99834.56;;;19.28;72.65
76864;BME280;65834;52.364;9.754;2023-08-06T10:25:18;99835.25;;;19.51;69.72
76864;BME280;65834;52.364;9.754;2023-08-06T10:27:54;99831.53;;;19.30;71.86
76864;BME280;65834;52.364;9.754;2023-08-06T10:30:25;99827.09;;;19.61;69.21
76864;BME280;65834;52.364;9.754;2023-08-06T10:32:56;99820.03;;;19.33;72.90
76864;BME280;65834;52.364;9.754;2023-08-06T10:35:28;99824.53;;;19.44;70.74
76864;BME280;65834;52.364;9.754;2023-08-06T10:37:59;99827.16;;;19.71;68.44
76864;BME280;65834;52.364;9.754;2023-08-06T10:40:35;99822.81;;;19.80;66.89
76864;BME280;65834;52.364;9.754;2023-08-06T10:43:05;99821.44;;;19.87;66.08
76864;BME280;65834;52.364;9.754;2023-08-06T10:45:37;99820.06;;;19.80;65.70
76864;BME280;65834;52.364;9.754;2023-08-06T10:48:07;99817.38;;;19.90;65.35
76864;BME280;65834;52.364;9.754;2023-08-06T10:50:36;99819.59;;;19.93;65.39
76864;BME280;65834;52.364;9.754;2023-08-06T10:53:07;99824.72;;;19.84;65.57
76864;BME280;65834;52.364;9.754;2023-08-06T10:55:41;99814.94;;;19.98;63.37
76864;BME280;65834;52.364;9.754;2023-08-06T10:58:15;99814.34;;;19.96;62.43
76864;BME280;65834;52.364;9.754;2023-08-06T11:00:45;99809.94;;;19.85;64.23
76864;BME280;65834;52.364;9.754;2023-08-06T11:03:15;99799.00;;;19.95;62.61
76864;BME280;65834;52.364;9.754;2023-08-06T11:05:48;99800.66;;;20.01;62.34
76864;BME280;65834;52.364;9.754;2023-08-06T11:08:25;99791.84;;;19.89;64.50
76864;BME280;65834;52.364;9.754;2023-08-06T11:11:07;99789.91;;;19.90;65.02
76864;BME280;65834;52.364;9.754;2023-08-06T11:13:37;99796.72;;;19.77;66.46
76864;BME280;65834;52.364;9.754;2023-08-06T11:16:07;99780.88;;;19.99;64.55
76864;BME280;65834;52.364;9.754;2023-08-06T11:18:37;99787.84;;;20.27;61.99
76864;BME280;65834;52.364;9.754;2023-08-06T11:21:07;99780.47;;;20.33;60.05
76864;BME280;65834;52.364;9.754;2023-08-06T11:23:39;99784.56;;;20.30;59.89
76864;BME280;65834;52.364;9.754;2023-08-06T11:26:12;99783.75;;;20.35;58.72
76864;BME280;65834;52.364;9.754;2023-08-06T11:28:42;99779.28;;;20.19;60.75
76864;BME280;65834;52.364;9.754;2023-08-06T11:31:18;99778.25;;;20.30;59.27
76864;BME280;65834;52.364;9.754;2023-08-06T11:33:49;99778.53;;;20.38;59.36
76864;BME280;65834;52.364;9.754;2023-08-06T11:36:28;99773.03;;;20.28;60.37
76864;BME280;65834;52.364;9.754;2023-08-06T11:38:58;99757.63;;;20.27;60.65
76864;BME280;65834;52.364;9.754;2023-08-06T11:41:32;99765.91;;;20.37;60.51
76864;BME280;65834;52.364;9.754;2023-08-06T11:44:03;99766.19;;;20.71;58.23
76864;BME280;65834;52.364;9.754;2023-08-06T11:46:50;99768.13;;;20.66;57.97
76864;BME280;65834;52.364;9.754;2023-08-06T11:49:37;99771.69;;;20.61;58.76
76864;BME280;65834;52.364;9.754;2023-08-06T11:52:10;99766.47;;;20.65;58.55
76864;BME280;65834;52.364;9.754;2023-08-06T11:54:40;99767.59;;;20.69;57.96
76864;BME280;65834;52.364;9.754;2023-08-06T11:57:13;99761.81;;;20.75;57.99
76864;BME280;65834;52.364;9.754;2023-08-06T11:59:45;99756.31;;;20.65;58.40
76864;BME280;65834;52.364;9.754;2023-08-06T12:02:14;99762.09;;;20.64;60.51
76864;BME280;65834;52.364;9.754;2023-08-06T12:05:00;99749.41;;;20.37;60.45
76864;BME280;65834;52.364;9.754;2023-08-06T12:07:32;99751.34;;;20.42;60.65
76864;BME280;65834;52.364;9.754;2023-08-06T12:10:02;99739.81;;;20.45;61.24
76864;BME280;65834;52.364;9.754;2023-08-06T12:12:34;99742.56;;;20.55;59.24
76864;BME280;65834;52.364;9.754;2023-08-06T12:15:06;99743.94;;;20.68;59.26
76864;BME280;65834;52.364;9.754;2023-08-06T12:17:37;99750.53;;;20.77;57.70
76864;BME280;65834;52.364;9.754;2023-08-06T12:20:07;99748.63;;;20.87;57.75
76864;BME280;65834;52.364;9.754;2023-08-06T12:22:38;99735.13;;;20.81;58.67
76864;BME280;65834;52.364;9.754;2023-08-06T12:25:08;99739.50;;;20.92;57.14
76864;BME280;65834;52.364;9.754;2023-08-06T12:27:41;99729.34;;;20.92;58.84
76864;BME280;65834;52.364;9.754;2023-08-06T12:30:12;99724.97;;;20.91;57.93
76864;BME280;65834;52.364;9.754;2023-08-06T12:32:42;99734.31;;;20.90;58.81
76864;BME280;65834;52.364;9.754;2023-08-06T12:35:12;99735.69;;;20.83;57.94
76864;BME280;65834;52.364;9.754;2023-08-06T12:37:41;99737.88;;;20.91;57.13
76864;BME280;65834;52.364;9.754;2023-08-06T12:40:12;99740.09;;;21.04;56.00
76864;BME280;65834;52.364;9.754;2023-08-06T12:43:03;99735.69;;;20.93;56.05
76864;BME280;65834;52.364;9.754;2023-08-06T12:45:33;99737.34;;;20.94;56.01
76864;BME280;65834;52.364;9.754;2023-08-06T12:48:03;99740.09;;;20.79;56.50
76864;BME280;65834;52.364;9.754;2023-08-06T12:50:33;99742.84;;;20.94;55.64
76864;BME280;65834;52.364;9.754;2023-08-06T12:53:03;99737.34;;;20.79;57.17
76864;BME280;65834;52.364;9.754;2023-08-06T12:55:33;99726.34;;;20.74;57.48
76864;BME280;65834;52.364;9.754;2023-08-06T12:58:05;99734.56;;;20.89;56.23
76864;BME280;65834;52.364;9.754;2023-08-06T13:00:35;99732.97;;;20.73;58.02
76864;BME280;65834;52.364;9.754;2023-08-06T13:03:04;99736.81;;;20.82;57.24
76864;BME280;65834;52.364;9.754;2023-08-06T13:05:44;99743.94;;;20.78;57.57
76864;BME280;65834;52.364;9.754;2023-08-06T13:08:14;99732.66;;;20.89;56.92
76864;BME280;65834;52.364;9.754;2023-08-06T13:10:44;99737.88;;;20.91;56.41
76864;BME280;65834;52.364;9.754;2023-08-06T13:13:16;99742.84;;;20.84;56.20
76864;BME280;65834;52.364;9.754;2023-08-06T13:15:45;99734.03;;;20.77;56.24
76864;BME280;65834;52.364;9.754;2023-08-06T13:18:15;99737.63;;;20.82;56.03
76864;BME280;65834;52.364;9.754;2023-08-06T13:20:45;99736.50;;;20.83;56.20